Time;durP1;ratioP1;P1;durP2;ratioP2;P2;SDS_P1;SDS_P2;PMS_P1;PMS_P2;Temp;Humidity;BMP_temperature;BMP_pressure;BME280_temperature;BME280_humidity;BME280_pressure;Samples;Min_cycle;Max_cycle;Signal;HPM_P1;HPM_P2
2021/07/19 00:01:25;;;;;;;0.90;0.70;;;19.90;99.90;;;;;;4967650;28;20198;-77
2021/07/19 00:03:50;;;;;;;1.53;0.87;;;19.80;99.90;;;;;;4940529;29;20181;-79
2021/07/19 00:06:16;;;;;;;0.80;0.60;;;19.80;99.90;;;;;;4939051;29;20196;-77
2021/07/19 00:08:45;;;;;;;0.80;0.80;;;19.80;99.90;;;;;;4952645;28;20557;-78
2021/07/19 00:11:11;;;;;;;1.57;0.87;;;19.80;99.90;;;;;;4937578;29;20203;-77
2021/07/19 00:13:37;;;;;;;0.80;0.60;;;19.70;99.90;;;;;;4942915;29;20445;-77
2021/07/19 00:16:02;;;;;;;0.80;0.63;;;19.70;99.90;;;;;;4939033;29;20183;-78
2021/07/19 00:18:28;;;;;;;1.00;0.90;;;19.70;99.90;;;;;;4942775;29;20450;-79
2021/07/19 00:20:54;;;;;;;0.90;0.70;;;19.60;99.90;;;;;;4941116;28;20596;-80
2021/07/19 00:23:19;;;;;;;1.47;1.37;;;19.60;99.90;;;;;;4944403;28;20198;-78
2021/07/19 00:25:45;;;;;;;0.90;0.70;;;19.60;99.90;;;;;;4978815;28;20174;-78
2021/07/19 00:28:10;;;;;;;1.10;1.00;;;19.50;99.90;;;;;;4964235;28;20179;-80
2021/07/19 00:30:37;;;;;;;1.47;0.83;;;19.50;99.90;;;;;;4936454;28;20205;-78
2021/07/19 00:33:04;;;;;;;1.20;1.00;;;19.50;99.90;;;;;;4949942;28;20280;-78
2021/07/19 00:35:30;;;;;;;0.80;0.60;;;19.50;99.90;;;;;;4950220;29;20425;-78
2021/07/19 00:37:55;;;;;;;0.80;0.80;;;19.40;99.90;;;;;;4934076;29;20423;-78
2021/07/19 00:40:27;;;;;;;0.80;0.70;;;19.40;99.90;;;;;;4937279;29;20182;-80
2021/07/19 00:42:53;;;;;;;0.80;0.60;;;19.40;99.90;;;;;;4940491;28;20542;-79
2021/07/19 00:45:22;;;;;;;2.60;0.60;;;19.30;99.90;;;;;;4951777;28;20495;-78
2021/07/19 00:47:49;;;;;;;1.07;1.00;;;19.30;99.90;;;;;;4953297;28;20447;-78
2021/07/19 00:50:16;;;;;;;1.20;1.03;;;19.30;99.90;;;;;;4957269;28;20466;-79
2021/07/19 00:52:42;;;;;;;1.10;1.00;;;19.30;99.90;;;;;;4950954;29;20442;-78
2021/07/19 00:55:09;;;;;;;2.93;2.73;;;19.20;99.90;;;;;;4955859;29;20544;-80
2021/07/19 00:57:38;;;;;;;2.30;0.90;;;19.20;99.90;;;;;;4949058;28;20652;-79
2021/07/19 01:00:12;;;;;;;0.80;0.60;;;19.20;99.90;;;;;;4958331;28;20433;-80
2021/07/19 01:02:45;;;;;;;0.80;0.70;;;19.20;99.90;;;;;;4952586;28;20462;-80
2021/07/19 01:05:12;;;;;;;2.10;1.07;;;19.20;99.90;;;;;;4954200;29;20527;-77
2021/07/19 01:07:39;;;;;;;1.90;0.90;;;19.20;99.90;;;;;;4941284;28;20434;-80
2021/07/19 01:10:08;;;;;;;0.90;0.63;;;19.10;99.90;;;;;;4933611;29;20560;-78
2021/07/19 01:12:35;;;;;;;0.90;0.80;;;19.10;99.90;;;;;;4958128;28;20442;-78
2021/07/19 01:15:00;;;;;;;2.30;1.63;;;19.10;99.90;;;;;;4945626;29;20461;-78
2021/07/19 01:17:26;;;;;;;0.80;0.80;;;19.10;99.90;;;;;;4949968;29;20429;-77
2021/07/19 01:19:53;;;;;;;0.87;0.80;;;19.10;99.90;;;;;;4939244;28;20555;-77
2021/07/19 01:22:43;;;;;;;0.93;0.73;;;19.10;99.90;;;;;;4937454;29;20278;-80
2021/07/19 01:25:25;;;;;;;0.93;0.80;;;19.00;99.90;;;;;;4983864;28;20516;-78
2021/07/19 01:28:16;;;;;;;1.57;1.00;;;19.00;99.90;;;;;;4950323;29;20434;-78
2021/07/19 01:30:44;;;;;;;1.87;1.70;;;19.00;99.90;;;;;;4939646;28;20462;-77
2021/07/19 01:33:12;;;;;;;0.90;0.60;;;18.90;99.90;;;;;;4933483;29;20466;-80
2021/07/19 01:35:40;;;;;;;0.80;0.60;;;18.90;99.90;;;;;;5012242;28;20523;-80
2021/07/19 01:38:07;;;;;;;0.80;0.60;;;18.80;99.90;;;;;;4955819;29;20490;-78
2021/07/19 01:40:34;;;;;;;1.57;0.70;;;18.80;99.90;;;;;;4939566;29;20467;-80
2021/07/19 01:43:01;;;;;;;1.10;0.90;;;18.90;99.90;;;;;;4976360;28;20449;-77
2021/07/19 01:45:27;;;;;;;0.80;0.57;;;18.80;99.90;;;;;;4961918;28;20418;-78
2021/07/19 01:47:54;;;;;;;1.83;0.73;;;18.80;99.90;;;;;;4951631;29;20429;-78
2021/07/19 01:50:19;;;;;;;1.57;0.80;;;18.80;99.90;;;;;;4952035;28;20465;-78
2021/07/19 01:52:46;;;;;;;2.23;1.00;;;18.70;99.90;;;;;;4947188;28;21001;-80
2021/07/19 01:55:11;;;;;;;0.97;0.70;;;18.70;99.90;;;;;;4935788;29;20191;-78
2021/07/19 01:57:38;;;;;;;1.23;1.10;;;18.70;99.90;;;;;;4944914;28;21115;-77
2021/07/19 02:00:08;;;;;;;0.80;0.67;;;18.70;99.90;;;;;;4952619;28;20694;-79
2021/07/19 02:02:37;;;;;;;1.10;0.80;;;18.60;99.90;;;;;;4957471;29;20540;-78
2021/07/19 02:05:15;;;;;;;0.80;0.70;;;18.60;99.90;;;;;;4958257;28;20433;-79
2021/07/19 02:07:42;;;;;;;1.23;1.13;;;18.60;99.90;;;;;;4943025;28;20427;-78
2021/07/19 02:10:10;;;;;;;0.90;0.73;;;18.60;99.90;;;;;;4934937;29;20466;-80
2021/07/19 02:12:37;;;;;;;1.00;0.90;;;18.60;99.90;;;;;;4937940;29;20449;-78
2021/07/19 02:15:15;;;;;;;3.27;1.07;;;18.60;99.90;;;;;;4949393;28;20437;-78
2021/07/19 02:17:50;;;;;;;1.00;0.90;;;18.60;99.90;;;;;;4936412;28;20438;-79
2021/07/19 02:20:18;;;;;;;2.87;1.80;;;18.60;99.90;;;;;;4935770;28;20434;-80
2021/07/19 02:22:46;;;;;;;1.53;1.37;;;18.50;99.90;;;;;;4948909;28;20845;-80
2021/07/19 02:25:13;;;;;;;1.67;0.90;;;18.50;99.90;;;;;;4954078;28;20434;-78
2021/07/19 02:27:42;;;;;;;1.53;0.83;;;18.50;99.90;;;;;;4938727;29;20441;-79
2021/07/19 02:30:12;;;;;;;1.07;0.97;;;18.40;99.90;;;;;;4961553;28;20456;-78
2021/07/19 02:32:42;;;;;;;0.90;0.80;;;18.40;99.90;;;;;;4988254;28;20494;-80
2021/07/19 02:35:09;;;;;;;1.07;0.97;;;18.40;99.90;;;;;;4955749;28;20437;-80
2021/07/19 02:37:41;;;;;;;1.33;1.23;;;18.40;99.90;;;;;;4938687;29;20515;-79
2021/07/19 02:40:07;;;;;;;1.20;0.63;;;18.40;99.90;;;;;;4936952;28;20525;-79
2021/07/19 02:42:44;;;;;;;1.43;0.90;;;18.40;99.90;;;;;;4937358;29;20462;-77
2021/07/19 02:45:15;;;;;;;0.90;0.80;;;18.30;99.90;;;;;;4952481;28;20708;-80
2021/07/19 02:47:43;;;;;;;4.30;2.03;;;18.30;99.90;;;;;;4972183;28;20441;-78
2021/07/19 02:50:10;;;;;;;1.53;0.80;;;18.30;99.90;;;;;;4948423;28;21066;-79
2021/07/19 02:52:37;;;;;;;1.27;0.90;;;18.30;99.90;;;;;;4942969;28;20438;-78
2021/07/19 02:55:05;;;;;;;0.90;0.70;;;18.30;99.90;;;;;;4951824;28;20475;-80
2021/07/19 02:57:30;;;;;;;0.70;0.63;;;18.30;99.90;;;;;;4952902;28;20547;-78
2021/07/19 02:59:57;;;;;;;2.60;2.27;;;18.30;99.90;;;;;;4940940;29;20512;-77
2021/07/19 03:02:25;;;;;;;1.33;1.23;;;18.30;99.90;;;;;;4951139;28;20198;-78
2021/07/19 03:04:56;;;;;;;0.80;0.80;;;18.30;99.90;;;;;;4967163;28;20508;-78
2021/07/19 03:07:22;;;;;;;1.00;0.80;;;18.30;99.90;;;;;;4939676;29;20426;-78
2021/07/19 03:09:55;;;;;;;1.00;0.90;;;18.30;99.90;;;;;;4936430;29;20466;-78
2021/07/19 03:12:23;;;;;;;1.60;1.50;;;18.20;99.90;;;;;;4933251;29;20442;-78
2021/07/19 03:14:49;;;;;;;2.50;1.00;;;18.20;99.90;;;;;;4934376;28;20917;-77
2021/07/19 03:17:18;;;;;;;2.20;1.00;;;18.20;99.90;;;;;;4946665;28;20923;-78
2021/07/19 03:19:50;;;;;;;2.37;2.20;;;18.20;99.90;;;;;;4948118;28;20802;-78
2021/07/19 03:22:19;;;;;;;1.00;0.80;;;18.10;99.90;;;;;;4948724;28;20450;-77
2021/07/19 03:24:47;;;;;;;0.83;0.83;;;18.10;99.90;;;;;;4945033;28;21005;-79
2021/07/19 03:27:14;;;;;;;0.70;0.60;;;18.10;99.90;;;;;;4950357;28;20452;-79
2021/07/19 03:29:40;;;;;;;0.90;0.73;;;18.00;99.90;;;;;;4949607;28;20469;-80
2021/07/19 03:32:08;;;;;;;2.70;1.80;;;18.00;99.90;;;;;;4954734;28;20556;-78
2021/07/19 03:34:34;;;;;;;0.80;0.70;;;18.00;99.90;;;;;;4954118;28;20438;-79
2021/07/19 03:37:01;;;;;;;1.57;0.70;;;18.00;99.90;;;;;;4943754;28;20482;-79
2021/07/19 03:39:27;;;;;;;0.97;0.60;;;17.90;99.90;;;;;;4953096;28;20445;-78
2021/07/19 03:41:53;;;;;;;0.70;0.57;;;17.90;99.90;;;;;;4951064;28;20515;-78
2021/07/19 03:44:20;;;;;;;1.07;0.80;;;17.90;99.90;;;;;;4954130;28;20526;-78
2021/07/19 03:46:46;;;;;;;1.30;1.03;;;17.90;99.90;;;;;;4953142;28;20434;-80
2021/07/19 03:49:13;;;;;;;2.10;2.00;;;17.80;99.90;;;;;;4954893;28;20455;-78
2021/07/19 03:51:41;;;;;;;0.80;0.70;;;17.80;99.90;;;;;;4949620;28;20446;-78
2021/07/19 03:54:08;;;;;;;0.90;0.60;;;17.80;99.90;;;;;;4949280;28;20445;-78
2021/07/19 03:56:35;;;;;;;0.70;0.50;;;17.80;99.90;;;;;;4950099;28;20429;-78
2021/07/19 03:59:02;;;;;;;1.03;0.93;;;17.80;99.90;;;;;;4935241;28;20427;-77
2021/07/19 04:01:27;;;;;;;1.70;1.40;;;17.80;99.90;;;;;;4952904;28;20478;-79
2021/07/19 04:03:55;;;;;;;1.67;1.53;;;17.80;99.90;;;;;;4950851;28;20469;-78
2021/07/19 04:06:22;;;;;;;7.00;1.77;;;17.80;99.90;;;;;;4951177;28;20446;-78
2021/07/19 04:08:49;;;;;;;1.40;0.97;;;17.80;99.90;;;;;;4939237;28;20465;-78
2021/07/19 04:11:16;;;;;;;0.97;0.80;;;17.80;99.90;;;;;;4934048;29;20516;-80
2021/07/19 04:13:43;;;;;;;2.50;1.30;;;17.80;99.90;;;;;;4945988;28;20430;-77
2021/07/19 04:16:13;;;;;;;1.13;0.90;;;17.80;99.90;;;;;;4949821;28;20438;-77
2021/07/19 04:18:39;;;;;;;3.33;1.00;;;17.80;99.90;;;;;;4943728;28;20433;-78
2021/07/19 04:21:05;;;;;;;1.50;0.70;;;17.90;99.90;;;;;;4948139;28;20513;-80
2021/07/19 04:23:31;;;;;;;0.80;0.70;;;17.90;99.90;;;;;;4954491;28;20486;-80
2021/07/19 04:25:57;;;;;;;1.00;0.90;;;17.90;99.90;;;;;;4954217;28;20182;-80
2021/07/19 04:28:24;;;;;;;1.47;1.30;;;17.90;99.90;;;;;;4955883;28;21015;-80
2021/07/19 04:30:51;;;;;;;0.80;0.70;;;17.90;99.90;;;;;;4953619;28;20462;-80
2021/07/19 04:33:22;;;;;;;1.80;1.30;;;17.90;99.90;;;;;;4949796;28;20890;-78
2021/07/19 04:35:48;;;;;;;2.27;0.70;;;17.90;99.90;;;;;;4949803;28;20496;-78
2021/07/19 04:38:19;;;;;;;1.43;1.13;;;17.90;99.90;;;;;;4950429;28;20543;-79
2021/07/19 04:40:46;;;;;;;2.50;1.10;;;17.90;99.90;;;;;;4947745;28;20938;-78
2021/07/19 04:43:12;;;;;;;0.80;0.70;;;17.90;99.90;;;;;;4950235;28;20458;-80
2021/07/19 04:45:38;;;;;;;2.40;0.60;;;17.90;99.90;;;;;;4949002;28;20429;-79
2021/07/19 04:48:04;;;;;;;0.87;0.80;;;18.00;99.90;;;;;;4945627;28;20449;-80
2021/07/19 04:50:29;;;;;;;0.93;0.93;;;17.90;99.90;;;;;;4950527;28;20259;-79
2021/07/19 04:52:55;;;;;;;0.97;0.97;;;18.00;99.90;;;;;;4955835;28;20229;-81
2021/07/19 04:55:23;;;;;;;0.90;0.63;;;18.00;99.90;;;;;;4951234;28;20268;-78
2021/07/19 04:57:52;;;;;;;1.70;1.60;;;18.00;99.90;;;;;;4953520;28;20182;-79
2021/07/19 05:00:18;;;;;;;2.93;1.00;;;18.00;99.90;;;;;;4952739;28;20660;-80
2021/07/19 05:02:45;;;;;;;1.10;0.70;;;18.00;99.90;;;;;;4952097;28;20863;-79
2021/07/19 05:05:13;;;;;;;0.80;0.70;;;18.00;99.90;;;;;;4947162;28;20442;-78
2021/07/19 05:07:40;;;;;;;1.13;0.70;;;18.10;99.90;;;;;;4948923;28;20532;-78
2021/07/19 05:10:08;;;;;;;1.00;0.70;;;18.10;99.90;;;;;;4948783;28;20473;-78
2021/07/19 05:12:34;;;;;;;1.50;1.40;;;18.10;99.90;;;;;;4952551;28;20453;-79
2021/07/19 05:15:00;;;;;;;1.67;1.37;;;18.10;99.90;;;;;;4952553;28;20437;-79
2021/07/19 05:17:29;;;;;;;1.77;1.67;;;18.10;99.90;;;;;;4953469;28;20942;-78
2021/07/19 05:19:55;;;;;;;2.60;1.40;;;18.10;99.90;;;;;;4951872;28;20679;-79
2021/07/19 05:22:21;;;;;;;1.07;0.90;;;18.20;99.90;;;;;;4949046;28;20559;-78
2021/07/19 05:24:47;;;;;;;1.30;1.20;;;18.30;99.90;;;;;;4945007;28;20482;-78
2021/07/19 05:27:15;;;;;;;1.30;1.07;;;18.30;99.90;;;;;;4952073;28;20239;-79
2021/07/19 05:29:41;;;;;;;1.30;0.73;;;18.40;99.90;;;;;;4951901;28;20706;-79
2021/07/19 05:32:08;;;;;;;1.00;0.80;;;18.40;99.90;;;;;;4945063;28;20549;-80
2021/07/19 05:34:34;;;;;;;1.53;0.73;;;18.50;99.90;;;;;;4952435;28;20528;-79
2021/07/19 05:37:00;;;;;;;1.87;1.70;;;18.50;99.90;;;;;;4957447;28;20429;-78
2021/07/19 05:39:26;;;;;;;2.30;1.47;;;18.60;99.90;;;;;;4958014;28;20533;-79
2021/07/19 05:41:51;;;;;;;1.47;1.00;;;18.70;99.90;;;;;;4955085;28;20449;-79
2021/07/19 05:44:17;;;;;;;0.93;0.83;;;18.80;99.90;;;;;;4952734;28;20662;-78
2021/07/19 05:46:43;;;;;;;0.80;0.60;;;18.80;99.90;;;;;;4951349;28;20196;-78
2021/07/19 05:49:08;;;;;;;2.33;2.20;;;18.90;99.90;;;;;;4953663;28;20206;-80
2021/07/19 05:51:34;;;;;;;2.40;1.40;;;19.00;99.90;;;;;;4953556;28;20554;-79
2021/07/19 05:54:01;;;;;;;2.70;1.27;;;19.20;99.90;;;;;;4949799;28;20221;-78
2021/07/19 05:56:27;;;;;;;3.90;2.63;;;19.20;99.90;;;;;;4949950;28;20182;-79
2021/07/19 05:58:53;;;;;;;1.20;1.10;;;19.40;99.90;;;;;;4953577;29;20418;-79
2021/07/19 06:01:18;;;;;;;2.80;2.60;;;19.40;99.90;;;;;;4950804;28;20450;-78
2021/07/19 06:03:44;;;;;;;1.10;1.00;;;19.50;99.90;;;;;;4951206;28;20268;-79
2021/07/19 06:06:10;;;;;;;1.60;1.40;;;19.60;99.90;;;;;;4952849;28;20190;-78
2021/07/19 06:08:35;;;;;;;1.67;1.57;;;19.60;99.90;;;;;;4951209;28;20190;-78
2021/07/19 06:11:01;;;;;;;4.37;1.87;;;19.70;99.90;;;;;;4950532;28;20206;-78
2021/07/19 06:13:27;;;;;;;1.67;1.20;;;19.80;99.90;;;;;;4953022;28;20206;-78
2021/07/19 06:15:52;;;;;;;1.10;1.00;;;19.80;99.90;;;;;;4951646;28;20186;-79
2021/07/19 06:18:18;;;;;;;2.17;1.20;;;19.90;99.90;;;;;;4952117;28;20182;-78
2021/07/19 06:20:43;;;;;;;1.43;1.00;;;20.00;99.90;;;;;;4951341;28;20235;-78
2021/07/19 06:23:09;;;;;;;2.30;0.97;;;20.10;99.90;;;;;;4950388;28;20504;-79
2021/07/19 06:25:37;;;;;;;1.73;1.17;;;20.10;99.90;;;;;;4949525;28;20186;-79
2021/07/19 06:28:05;;;;;;;1.73;0.97;;;20.20;99.90;;;;;;4948047;28;20209;-78
2021/07/19 06:30:31;;;;;;;0.90;0.77;;;20.30;99.90;;;;;;4948836;28;20507;-78
2021/07/19 06:32:57;;;;;;;1.03;0.93;;;20.30;99.90;;;;;;4952442;28;20449;-78
2021/07/19 06:35:23;;;;;;;2.33;2.20;;;20.40;99.90;;;;;;4951192;28;20469;-78
2021/07/19 06:37:49;;;;;;;2.60;1.60;;;20.50;99.90;;;;;;4952021;28;20776;-79
2021/07/19 06:40:14;;;;;;;4.40;1.43;;;20.50;99.90;;;;;;4950371;28;20495;-78
2021/07/19 06:42:40;;;;;;;2.90;2.70;;;20.60;99.90;;;;;;4941757;28;20731;-79
2021/07/19 06:45:08;;;;;;;2.80;1.50;;;20.60;99.90;;;;;;4950137;28;20192;-78
2021/07/19 06:47:34;;;;;;;1.00;0.70;;;20.70;99.90;;;;;;4947174;28;20628;-78
2021/07/19 06:50:00;;;;;;;2.50;0.80;;;20.80;99.90;;;;;;4949442;28;20476;-78
2021/07/19 06:52:25;;;;;;;0.90;0.70;;;20.90;99.90;;;;;;4951552;28;20473;-79
2021/07/19 06:54:52;;;;;;;1.00;0.70;;;21.00;99.90;;;;;;4950374;28;20190;-79
2021/07/19 06:57:18;;;;;;;1.37;1.03;;;21.00;99.90;;;;;;4951536;28;20186;-78
2021/07/19 06:59:43;;;;;;;1.03;0.93;;;21.10;99.90;;;;;;4951400;28;20442;-79
2021/07/19 07:02:09;;;;;;;0.90;0.80;;;21.20;99.90;;;;;;4948144;28;20974;-78
2021/07/19 07:04:35;;;;;;;1.83;1.37;;;21.30;99.90;;;;;;4949894;28;20189;-79
2021/07/19 07:07:02;;;;;;;1.90;1.20;;;21.20;99.90;;;;;;4954285;28;20297;-79
2021/07/19 07:09:27;;;;;;;1.57;1.23;;;21.30;99.90;;;;;;4943960;28;20181;-79
2021/07/19 07:11:53;;;;;;;2.27;2.07;;;21.20;99.90;;;;;;4953830;28;20456;-78
2021/07/19 07:14:18;;;;;;;0.80;0.60;;;21.30;99.90;;;;;;4952578;28;20222;-78
2021/07/19 07:16:44;;;;;;;4.53;1.80;;;21.20;99.90;;;;;;4951792;28;20179;-79
2021/07/19 07:19:10;;;;;;;1.00;0.80;;;21.10;99.90;;;;;;4942096;28;20218;-78
2021/07/19 07:21:35;;;;;;;1.30;1.20;;;21.20;99.90;;;;;;4951177;28;20269;-78
2021/07/19 07:24:01;;;;;;;0.80;0.60;;;21.10;99.90;;;;;;4961012;28;20183;-79
2021/07/19 07:26:27;;;;;;;2.40;2.20;;;21.20;99.90;;;;;;5051832;28;20175;-78
2021/07/19 07:28:53;;;;;;;1.23;1.13;;;21.30;99.90;;;;;;4967921;28;20186;-78
2021/07/19 07:31:25;;;;;;;2.20;2.00;;;21.40;99.90;;;;;;4947252;28;20293;-78
2021/07/19 07:33:51;;;;;;;1.17;1.07;;;21.30;99.90;;;;;;4946486;28;20425;-78
2021/07/19 07:36:16;;;;;;;3.83;1.33;;;21.30;99.90;;;;;;4942609;28;20517;-78
2021/07/19 07:38:42;;;;;;;1.40;1.30;;;21.40;99.90;;;;;;4992147;28;20221;-78
2021/07/19 07:41:08;;;;;;;1.67;1.33;;;21.50;99.90;;;;;;5053051;28;20253;-78
2021/07/19 07:43:34;;;;;;;0.80;0.70;;;21.60;99.90;;;;;;5023495;28;20281;-78
2021/07/19 07:46:00;;;;;;;2.30;2.10;;;21.70;99.90;;;;;;4951886;28;20450;-78
2021/07/19 07:48:26;;;;;;;1.23;1.10;;;22.00;99.90;;;;;;4933433;29;20190;-78
2021/07/19 07:50:51;;;;;;;2.10;1.90;;;22.10;99.90;;;;;;4933818;29;20199;-78
2021/07/19 07:53:20;;;;;;;1.13;0.90;;;22.20;99.90;;;;;;5045652;28;20610;-79
2021/07/19 07:55:46;;;;;;;1.20;1.10;;;22.40;99.90;;;;;;5025895;28;20182;-79
2021/07/19 07:58:11;;;;;;;1.73;1.63;;;22.50;99.90;;;;;;5019851;28;20428;-79
2021/07/19 08:00:37;;;;;;;6.60;3.03;;;22.50;99.90;;;;;;5050510;28;20429;-79
2021/07/19 08:03:03;;;;;;;1.43;1.33;;;22.50;99.90;;;;;;5052568;28;20655;-79
2021/07/19 08:05:28;;;;;;;1.23;1.10;;;22.50;99.90;;;;;;4966031;28;20190;-78
2021/07/19 08:07:54;;;;;;;2.13;1.00;;;22.50;99.90;;;;;;5052425;28;20182;-78
2021/07/19 08:10:19;;;;;;;1.23;0.83;;;22.50;99.90;;;;;;4933733;28;20210;-78
2021/07/19 08:12:46;;;;;;;2.10;0.93;;;22.50;99.90;;;;;;4933634;29;20596;-78
2021/07/19 08:15:14;;;;;;;1.17;1.07;;;22.50;99.90;;;;;;4935156;29;20178;-78
2021/07/19 08:17:40;;;;;;;1.37;1.03;;;22.40;99.90;;;;;;4940194;29;20425;-78
2021/07/19 08:20:06;;;;;;;1.30;1.03;;;22.30;99.90;;;;;;4949325;28;20530;-78
2021/07/19 08:22:32;;;;;;;2.27;2.03;;;22.30;99.90;;;;;;4951535;28;20206;-78
2021/07/19 08:24:58;;;;;;;1.23;1.13;;;22.30;99.90;;;;;;4935671;29;20943;-78
2021/07/19 08:27:25;;;;;;;1.30;0.67;;;22.20;99.90;;;;;;4932322;29;20189;-79
2021/07/19 08:29:50;;;;;;;3.00;1.77;;;22.20;99.90;;;;;;4945144;28;20497;-78
2021/07/19 08:32:17;;;;;;;1.00;0.90;;;22.20;99.90;;;;;;4957140;28;20474;-78
2021/07/19 08:34:45;;;;;;;2.00;1.90;;;22.20;99.90;;;;;;4997372;28;20660;-79
2021/07/19 08:37:12;;;;;;;1.50;0.90;;;22.20;99.90;;;;;;4951051;29;20424;-79
2021/07/19 08:39:39;;;;;;;1.90;1.33;;;22.30;99.90;;;;;;4951913;28;20938;-78
2021/07/19 08:42:04;;;;;;;2.00;1.80;;;22.20;99.90;;;;;;4977363;28;20503;-78
2021/07/19 08:44:31;;;;;;;1.67;1.17;;;22.20;99.90;;;;;;4972387;28;20426;-78
2021/07/19 08:46:56;;;;;;;1.57;1.10;;;22.30;99.90;;;;;;4931800;29;20171;-79
2021/07/19 08:49:22;;;;;;;1.40;0.90;;;22.30;99.90;;;;;;4931864;29;20438;-78
2021/07/19 08:51:48;;;;;;;2.57;0.90;;;22.30;99.90;;;;;;4939922;28;20213;-79
2021/07/19 08:54:14;;;;;;;2.80;2.30;;;22.40;99.90;;;;;;4951724;28;20170;-79
2021/07/19 08:56:40;;;;;;;3.30;2.77;;;22.30;99.90;;;;;;4981531;28;20430;-78
2021/07/19 08:59:07;;;;;;;1.67;1.13;;;22.30;99.90;;;;;;4951098;28;20184;-78
2021/07/19 09:01:34;;;;;;;1.10;1.00;;;22.30;99.90;;;;;;4949541;28;20426;-79
2021/07/19 09:04:00;;;;;;;1.47;1.37;;;22.30;99.90;;;;;;4942939;28;20492;-79
2021/07/19 09:06:25;;;;;;;1.00;0.80;;;22.40;99.90;;;;;;4940663;28;20434;-78
2021/07/19 09:08:53;;;;;;;1.00;0.90;;;22.40;99.90;;;;;;4950949;29;20254;-78
2021/07/19 09:11:21;;;;;;;1.57;1.47;;;22.40;99.90;;;;;;4947936;28;20626;-79
2021/07/19 09:14:05;;;;;;;0.93;0.90;;;22.40;99.90;;;;;;4934021;29;20900;-78
2021/07/19 09:16:41;;;;;;;2.40;2.23;;;22.40;99.90;;;;;;4931873;29;20957;-79
2021/07/19 09:19:09;;;;;;;3.17;0.90;;;22.40;99.90;;;;;;4931761;29;20413;-78
2021/07/19 09:21:37;;;;;;;2.43;2.00;;;22.30;99.90;;;;;;4951588;28;21016;-78
2021/07/19 09:24:07;;;;;;;0.97;0.73;;;22.30;99.90;;;;;;4960018;28;20430;-78
2021/07/19 09:26:39;;;;;;;1.50;1.20;;;22.30;99.90;;;;;;4950599;29;20414;-79
2021/07/19 09:29:06;;;;;;;3.10;1.60;;;22.20;99.90;;;;;;4950831;28;20799;-78
2021/07/19 09:31:44;;;;;;;2.27;1.97;;;22.20;99.90;;;;;;4949157;29;21034;-79
2021/07/19 09:34:23;;;;;;;5.33;1.30;;;22.30;99.90;;;;;;4952476;28;20425;-79
2021/07/19 09:37:02;;;;;;;4.47;3.57;;;22.30;99.90;;;;;;4945550;29;20521;-78
2021/07/19 09:39:39;;;;;;;3.60;2.27;;;22.30;99.90;;;;;;4933900;29;20469;-78
2021/07/19 09:42:06;;;;;;;2.87;2.53;;;22.30;99.90;;;;;;4950647;29;20437;-78
2021/07/19 09:44:31;;;;;;;3.10;1.87;;;22.30;99.90;;;;;;4950583;28;20417;-78
2021/07/19 09:47:02;;;;;;;5.53;2.80;;;22.30;99.90;;;;;;4937305;28;20927;-78
2021/07/19 09:49:30;;;;;;;1.00;0.70;;;22.30;99.90;;;;;;4996770;28;20668;-78
2021/07/19 09:52:06;;;;;;;2.70;2.27;;;22.40;99.90;;;;;;5051431;28;20511;-78
2021/07/19 09:54:40;;;;;;;2.70;2.50;;;22.40;99.90;;;;;;5050081;28;20433;-78
2021/07/19 09:57:06;;;;;;;2.40;2.20;;;22.50;99.90;;;;;;5021144;28;20426;-78
2021/07/19 09:59:33;;;;;;;2.57;1.97;;;22.50;99.90;;;;;;4946440;29;20419;-78
2021/07/19 10:01:59;;;;;;;1.87;1.43;;;22.50;99.90;;;;;;4934493;29;20183;-77
2021/07/19 10:04:25;;;;;;;1.67;1.30;;;22.50;99.90;;;;;;5041383;28;20778;-79
2021/07/19 10:06:53;;;;;;;1.37;1.27;;;22.60;99.90;;;;;;5054476;28;20166;-79
2021/07/19 10:09:23;;;;;;;1.30;1.10;;;22.70;99.90;;;;;;4965468;28;20926;-79
2021/07/19 10:11:52;;;;;;;3.40;3.10;;;22.80;99.90;;;;;;4953506;28;20516;-79
2021/07/19 10:14:29;;;;;;;2.60;1.90;;;22.70;99.90;;;;;;4944517;29;21014;-79
2021/07/19 10:16:57;;;;;;;3.90;2.40;;;22.70;99.90;;;;;;4932844;29;20763;-78
2021/07/19 10:19:24;;;;;;;1.73;1.63;;;22.80;99.90;;;;;;4942841;29;20865;-78
2021/07/19 10:21:50;;;;;;;3.03;2.40;;;22.80;99.90;;;;;;4936987;29;20543;-79
2021/07/19 10:24:16;;;;;;;5.20;2.93;;;22.80;99.90;;;;;;4942302;29;20438;-79
2021/07/19 10:26:41;;;;;;;2.70;2.40;;;22.80;99.90;;;;;;4953545;28;20418;-80
2021/07/19 10:29:07;;;;;;;3.30;2.00;;;22.80;99.90;;;;;;4948509;28;20265;-79
2021/07/19 10:31:34;;;;;;;1.60;1.50;;;22.80;99.90;;;;;;4934381;29;20203;-79
2021/07/19 10:34:02;;;;;;;1.50;1.40;;;22.80;99.90;;;;;;5004946;28;20186;-79
2021/07/19 10:36:40;;;;;;;2.00;1.67;;;22.80;99.90;;;;;;4970689;28;20772;-79
2021/07/19 10:39:12;;;;;;;2.90;1.73;;;22.90;99.90;;;;;;4977802;28;20433;-79
2021/07/19 10:41:38;;;;;;;2.07;1.87;;;22.80;99.90;;;;;;4934300;29;20434;-79
2021/07/19 10:44:09;;;;;;;3.13;1.33;;;22.70;99.90;;;;;;4933934;29;21027;-79
2021/07/19 10:46:36;;;;;;;2.40;1.60;;;22.70;99.90;;;;;;4933590;29;20466;-78
2021/07/19 10:49:10;;;;;;;2.53;2.00;;;22.80;99.90;;;;;;4933620;29;20419;-79
2021/07/19 10:51:46;;;;;;;2.90;2.23;;;22.90;99.90;;;;;;4939656;29;20450;-79
2021/07/19 10:54:19;;;;;;;2.63;1.70;;;23.10;99.90;;;;;;4943002;28;20832;-79
2021/07/19 10:56:45;;;;;;;2.90;2.20;;;23.20;99.90;;;;;;4947968;28;20421;-78
2021/07/19 10:59:26;;;;;;;3.50;3.00;;;23.40;99.90;;;;;;4944377;28;20446;-78
2021/07/19 11:01:56;;;;;;;3.10;2.73;;;23.60;99.90;;;;;;4940096;29;20874;-79
2021/07/19 11:04:23;;;;;;;4.13;2.30;;;23.70;99.90;;;;;;4940587;29;20941;-78
2021/07/19 11:06:56;;;;;;;4.97;3.00;;;23.80;99.90;;;;;;4952746;28;21001;-79
2021/07/19 11:09:36;;;;;;;2.73;2.53;;;24.00;99.90;;;;;;4948373;28;20477;-78
2021/07/19 11:12:11;;;;;;;1.30;1.00;;;24.20;99.90;;;;;;4985870;28;20465;-79
2021/07/19 11:14:46;;;;;;;3.27;2.90;;;24.30;99.90;;;;;;4950514;28;20441;-78
2021/07/19 11:17:12;;;;;;;2.90;1.83;;;24.30;99.90;;;;;;4948304;28;20428;-79
2021/07/19 11:19:43;;;;;;;2.13;1.70;;;24.40;99.90;;;;;;4952434;28;20505;-79
2021/07/19 11:22:18;;;;;;;1.60;1.50;;;24.50;99.90;;;;;;4971780;28;20820;-79
2021/07/19 11:24:49;;;;;;;3.77;1.73;;;24.40;99.90;;;;;;4953500;28;20460;-76
2021/07/19 11:27:28;;;;;;;1.23;1.10;;;24.50;99.90;;;;;;4951843;29;20575;-79
2021/07/19 11:30:11;;;;;;;2.67;2.33;;;24.50;99.90;;;;;;4951930;29;20464;-79
2021/07/19 11:32:39;;;;;;;2.50;1.70;;;24.70;99.90;;;;;;4958252;28;20449;-79
2021/07/19 11:35:19;;;;;;;3.43;0.93;;;24.90;99.90;;;;;;4959896;28;20434;-79
2021/07/19 11:37:48;;;;;;;5.43;3.00;;;24.90;99.90;;;;;;4948587;28;20440;-79
2021/07/19 11:40:31;;;;;;;1.50;1.40;;;24.90;99.90;;;;;;4951584;29;20533;-77
2021/07/19 11:43:08;;;;;;;2.57;2.10;;;24.80;99.90;;;;;;4951164;28;20441;-76
2021/07/19 11:45:38;;;;;;;5.30;3.03;;;24.80;99.90;;;;;;4950271;28;20482;-77
2021/07/19 11:48:06;;;;;;;3.47;2.43;;;24.80;99.90;;;;;;4951580;28;20476;-77
2021/07/19 11:50:32;;;;;;;2.40;2.20;;;24.70;99.90;;;;;;4951460;28;20450;-79
2021/07/19 11:52:58;;;;;;;1.83;1.73;;;24.60;99.90;;;;;;4951616;28;20488;-79
2021/07/19 11:55:24;;;;;;;2.90;2.13;;;24.50;99.90;;;;;;4951352;28;20535;-79
2021/07/19 11:58:01;;;;;;;2.20;1.83;;;24.40;99.90;;;;;;4951471;29;20440;-79
2021/07/19 12:00:35;;;;;;;3.80;1.93;;;24.40;99.90;;;;;;4950411;28;20433;-79
2021/07/19 12:03:12;;;;;;;5.03;1.53;;;24.30;99.90;;;;;;4950504;28;20849;-79
2021/07/19 12:05:52;;;;;;;2.77;1.73;;;24.40;99.90;;;;;;4949617;28;20438;-78
2021/07/19 12:08:25;;;;;;;3.30;2.80;;;24.40;99.90;;;;;;4952748;28;20907;-79
2021/07/19 12:10:57;;;;;;;2.77;2.57;;;24.40;99.90;;;;;;4969855;28;20469;-79
2021/07/19 12:13:22;;;;;;;4.10;2.27;;;24.30;99.90;;;;;;4969634;28;20468;-78
2021/07/19 12:15:55;;;;;;;3.07;2.30;;;24.40;99.90;;;;;;4963902;28;20834;-79
2021/07/19 12:18:31;;;;;;;3.20;1.73;;;24.40;99.90;;;;;;4951119;28;20167;-78
2021/07/19 12:21:26;;;;;;;4.53;2.90;;;24.40;99.90;;;;;;4949730;28;20414;-78
2021/07/19 12:23:53;;;;;;;1.87;1.43;;;24.30;99.90;;;;;;4932435;29;20930;-79
2021/07/19 12:26:31;;;;;;;3.13;2.23;;;24.40;99.90;;;;;;4932204;29;20407;-78
2021/07/19 12:29:02;;;;;;;2.17;1.97;;;24.30;99.90;;;;;;4932397;29;20964;-79
2021/07/19 12:31:42;;;;;;;4.23;3.60;;;24.30;99.90;;;;;;4942603;28;20846;-79
2021/07/19 12:34:13;;;;;;;4.40;2.27;;;24.40;99.90;;;;;;4951013;29;20429;-79
2021/07/19 12:36:40;;;;;;;5.17;2.67;;;24.40;99.90;;;;;;4950946;28;20417;-78
2021/07/19 12:39:11;;;;;;;2.40;1.53;;;24.50;99.90;;;;;;4950926;28;20434;-79
2021/07/19 12:41:38;;;;;;;4.23;2.70;;;24.40;99.90;;;;;;4950261;28;20436;-79
2021/07/19 12:44:09;;;;;;;4.50;2.40;;;24.50;99.90;;;;;;4950222;28;20954;-79
2021/07/19 12:46:43;;;;;;;4.90;2.90;;;24.70;99.90;;;;;;4949331;28;20955;-79
2021/07/19 12:49:09;;;;;;;3.53;1.30;;;24.90;99.90;;;;;;4951728;28;20521;-79
2021/07/19 12:51:35;;;;;;;6.80;2.10;;;25.30;99.90;;;;;;4951925;29;20461;-78
2021/07/19 12:54:07;;;;;;;4.30;2.87;;;25.70;99.90;;;;;;4951997;28;20425;-79